Archival Weather

Norman Y Mineta San Jose Intl

San Jose, California (KSJC)

Report from: Tuesday, February 27, 2024 7:53 PM PST
Current time: Friday, June 14, 2024 6:38 AM PDT

Current weather – Weather history – Daily summaries
Weather forecast

Temperature12.2°C (54.0°F)
Dew point5.0°C (41.0°F)
Winds 6 kts (3.1 m/s, 6.9 mph) Northwest (320°)
Visibility10 mi. (16.1 km)
Clouds Sky clear
Altimeter30.06 in.Hg (1018 mB)
Relative humidity61 %
Density altitude-362 ft. (-110 m)
Sea-level pressure101.8 kPa (1018 mB, 30.06 in.Hg)
Remarks Automated weather observing station with precipitation discriminator
Flight conditions Visual Meteorological Conditions
Raw dataKSJC 280353Z 32006KT 10SM CLR 12/05 A3006 RMK AO2 SLP179 T01220050
An error has occurred. This application may no longer respond until reloaded. Reload 🗙